sensor_id;sensor_type;location;lat;lon;timestamp;P1;durP1;ratioP1;P2;durP2;ratioP2
78985;SDS011;68384;55.750;48.746;2023-04-26T00:00:23;34.47;;;21.75;;
78985;SDS011;68384;55.750;48.746;2023-04-26T00:01:29;30.80;;;19.80;;
78985;SDS011;68384;55.750;48.746;2023-04-26T00:02:32;28.58;;;19.08;;
78985;SDS011;68384;55.750;48.746;2023-04-26T00:03:36;31.77;;;19.20;;
78985;SDS011;68384;55.750;48.746;2023-04-26T00:04:41;31.45;;;19.00;;
78985;SDS011;68384;55.750;48.746;2023-04-26T00:06:49;24.70;;;15.13;;
78985;SDS011;68384;55.750;48.746;2023-04-26T00:07:54;23.65;;;14.80;;
78985;SDS011;68384;55.750;48.746;2023-04-26T00:08:57;23.45;;;15.60;;
78985;SDS011;68384;55.750;48.746;2023-04-26T00:10:00;25.17;;;14.88;;
78985;SDS011;68384;55.750;48.746;2023-04-26T00:11:04;28.63;;;13.80;;
78985;SDS011;68384;55.750;48.746;2023-04-26T00:12:06;21.05;;;12.88;;
78985;SDS011;68384;55.750;48.746;2023-04-26T00:13:12;21.38;;;12.63;;
78985;SDS011;68384;55.750;48.746;2023-04-26T00:14:14;19.13;;;12.23;;
78985;SDS011;68384;55.750;48.746;2023-04-26T00:15:18;17.65;;;11.40;;
78985;SDS011;68384;55.750;48.746;2023-04-26T00:16:21;22.52;;;11.40;;
78985;SDS011;68384;55.750;48.746;2023-04-26T00:18:27;16.85;;;10.05;;
78985;SDS011;68384;55.750;48.746;2023-04-26T00:19:30;17.55;;;9.82;;
78985;SDS011;68384;55.750;48.746;2023-04-26T00:20:33;14.32;;;9.55;;
78985;SDS011;68384;55.750;48.746;2023-04-26T00:21:37;15.70;;;10.50;;
78985;SDS011;68384;55.750;48.746;2023-04-26T00:22:39;13.90;;;9.90;;
78985;SDS011;68384;55.750;48.746;2023-04-26T00:23:45;17.58;;;11.02;;
78985;SDS011;68384;55.750;48.746;2023-04-26T00:24:47;17.60;;;10.20;;
78985;SDS011;68384;55.750;48.746;2023-04-26T00:25:52;17.10;;;9.10;;
78985;SDS011;68384;55.750;48.746;2023-04-26T00:26:54;13.45;;;9.30;;
78985;SDS011;68384;55.750;48.746;2023-04-26T00:29:00;11.40;;;8.70;;
78985;SDS011;68384;55.750;48.746;2023-04-26T00:30:05;14.13;;;9.07;;
78985;SDS011;68384;55.750;48.746;2023-04-26T00:31:12;14.05;;;9.63;;
78985;SDS011;68384;55.750;48.746;2023-04-26T00:32:17;12.63;;;8.75;;
78985;SDS011;68384;55.750;48.746;2023-04-26T00:33:20;12.65;;;9.02;;
78985;SDS011;68384;55.750;48.746;2023-04-26T00:35:25;14.02;;;9.10;;
78985;SDS011;68384;55.750;48.746;2023-04-26T00:36:29;11.90;;;8.10;;
78985;SDS011;68384;55.750;48.746;2023-04-26T00:37:33;17.52;;;8.80;;
78985;SDS011;68384;55.750;48.746;2023-04-26T00:38:36;18.80;;;8.73;;
78985;SDS011;68384;55.750;48.746;2023-04-26T00:39:40;15.40;;;7.80;;
78985;SDS011;68384;55.750;48.746;2023-04-26T00:40:44;14.52;;;8.10;;
78985;SDS011;68384;55.750;48.746;2023-04-26T00:41:47;14.50;;;8.23;;
78985;SDS011;68384;55.750;48.746;2023-04-26T00:44:09;16.27;;;8.18;;
78985;SDS011;68384;55.750;48.746;2023-04-26T00:45:13;14.48;;;7.93;;
78985;SDS011;68384;55.750;48.746;2023-04-26T00:46:35;11.10;;;7.25;;
78985;SDS011;68384;55.750;48.746;2023-04-26T00:49:00;14.65;;;8.48;;
78985;SDS011;68384;55.750;48.746;2023-04-26T00:50:21;12.32;;;7.35;;
78985;SDS011;68384;55.750;48.746;2023-04-26T00:51:26;14.65;;;8.77;;
78985;SDS011;68384;55.750;48.746;2023-04-26T00:52:29;11.52;;;7.75;;
78985;SDS011;68384;55.750;48.746;2023-04-26T00:53:33;16.60;;;7.40;;
78985;SDS011;68384;55.750;48.746;2023-04-26T00:54:36;13.15;;;7.82;;
78985;SDS011;68384;55.750;48.746;2023-04-26T00:55:42;11.93;;;7.45;;
78985;SDS011;68384;55.750;48.746;2023-04-26T00:56:46;13.52;;;7.53;;
78985;SDS011;68384;55.750;48.746;2023-04-26T00:57:52;11.68;;;7.68;;
78985;SDS011;68384;55.750;48.746;2023-04-26T00:58:56;11.48;;;8.02;;
78985;SDS011;68384;55.750;48.746;2023-04-26T00:59:59;14.93;;;7.47;;
78985;SDS011;68384;55.750;48.746;2023-04-26T01:01:07;15.25;;;7.13;;
78985;SDS011;68384;55.750;48.746;2023-04-26T01:02:11;15.23;;;8.10;;
78985;SDS011;68384;55.750;48.746;2023-04-26T01:03:14;10.40;;;7.20;;
78985;SDS011;68384;55.750;48.746;2023-04-26T01:04:19;12.68;;;7.78;;
78985;SDS011;68384;55.750;48.746;2023-04-26T01:06:26;13.15;;;7.38;;
78985;SDS011;68384;55.750;48.746;2023-04-26T01:07:34;14.95;;;6.95;;
78985;SDS011;68384;55.750;48.746;2023-04-26T01:08:39;11.85;;;7.82;;
78985;SDS011;68384;55.750;48.746;2023-04-26T01:09:42;11.93;;;7.18;;
78985;SDS011;68384;55.750;48.746;2023-04-26T01:10:48;13.75;;;7.00;;
78985;SDS011;68384;55.750;48.746;2023-04-26T01:11:51;13.73;;;7.32;;
78985;SDS011;68384;55.750;48.746;2023-04-26T01:12:57;10.40;;;6.82;;
78985;SDS011;68384;55.750;48.746;2023-04-26T01:14:02;9.68;;;7.57;;
78985;SDS011;68384;55.750;48.746;2023-04-26T01:15:07;15.05;;;7.05;;
78985;SDS011;68384;55.750;48.746;2023-04-26T01:16:10;10.32;;;7.13;;
78985;SDS011;68384;55.750;48.746;2023-04-26T01:17:16;13.68;;;9.27;;
78985;SDS011;68384;55.750;48.746;2023-04-26T01:18:18;13.23;;;8.65;;
78985;SDS011;68384;55.750;48.746;2023-04-26T01:20:24;19.20;;;8.27;;
78985;SDS011;68384;55.750;48.746;2023-04-26T01:21:28;13.38;;;8.32;;
78985;SDS011;68384;55.750;48.746;2023-04-26T01:22:33;15.23;;;7.47;;
78985;SDS011;68384;55.750;48.746;2023-04-26T01:23:37;9.95;;;7.55;;
78985;SDS011;68384;55.750;48.746;2023-04-26T01:24:39;12.73;;;8.63;;
78985;SDS011;68384;55.750;48.746;2023-04-26T01:25:46;14.57;;;7.97;;
78985;SDS011;68384;55.750;48.746;2023-04-26T01:27:53;10.30;;;7.50;;
78985;SDS011;68384;55.750;48.746;2023-04-26T01:28:55;12.77;;;8.18;;
78985;SDS011;68384;55.750;48.746;2023-04-26T01:31:01;12.27;;;7.50;;
78985;SDS011;68384;55.750;48.746;2023-04-26T01:32:05;9.25;;;6.88;;
78985;SDS011;68384;55.750;48.746;2023-04-26T01:33:08;15.45;;;7.43;;
78985;SDS011;68384;55.750;48.746;2023-04-26T01:34:12;11.10;;;7.47;;
78985;SDS011;68384;55.750;48.746;2023-04-26T01:35:14;11.85;;;6.95;;
78985;SDS011;68384;55.750;48.746;2023-04-26T01:36:18;12.13;;;9.00;;
78985;SDS011;68384;55.750;48.746;2023-04-26T01:37:21;11.07;;;7.82;;
78985;SDS011;68384;55.750;48.746;2023-04-26T01:38:27;12.32;;;7.82;;
78985;SDS011;68384;55.750;48.746;2023-04-26T01:39:29;14.77;;;7.45;;
78985;SDS011;68384;55.750;48.746;2023-04-26T01:40:33;11.25;;;7.72;;
78985;SDS011;68384;55.750;48.746;2023-04-26T01:41:36;13.52;;;8.48;;
78985;SDS011;68384;55.750;48.746;2023-04-26T01:42:40;13.20;;;7.85;;
78985;SDS011;68384;55.750;48.746;2023-04-26T01:43:43;14.65;;;7.78;;
78985;SDS011;68384;55.750;48.746;2023-04-26T01:45:49;17.38;;;10.68;;
78985;SDS011;68384;55.750;48.746;2023-04-26T01:46:52;14.25;;;7.43;;
78985;SDS011;68384;55.750;48.746;2023-04-26T01:47:55;13.77;;;7.45;;
78985;SDS011;68384;55.750;48.746;2023-04-26T01:48:59;13.88;;;8.57;;
78985;SDS011;68384;55.750;48.746;2023-04-26T01:50:01;11.13;;;7.68;;
78985;SDS011;68384;55.750;48.746;2023-04-26T01:51:05;13.07;;;7.75;;
78985;SDS011;68384;55.750;48.746;2023-04-26T01:52:08;13.93;;;7.22;;
78985;SDS011;68384;55.750;48.746;2023-04-26T01:53:12;12.45;;;8.75;;
78985;SDS011;68384;55.750;48.746;2023-04-26T01:54:15;14.02;;;8.02;;
78985;SDS011;68384;55.750;48.746;2023-04-26T01:55:19;12.98;;;7.38;;
78985;SDS011;68384;55.750;48.746;2023-04-26T01:56:22;12.27;;;8.10;;
78985;SDS011;68384;55.750;48.746;2023-04-26T01:57:26;13.57;;;8.63;;
78985;SDS011;68384;55.750;48.746;2023-04-26T01:58:29;13.02;;;8.40;;
78985;SDS011;68384;55.750;48.746;2023-04-26T01:59:32;11.40;;;7.75;;
78985;SDS011;68384;55.750;48.746;2023-04-26T02:00:35;14.38;;;7.95;;
78985;SDS011;68384;55.750;48.746;2023-04-26T02:01:40;13.85;;;8.10;;
78985;SDS011;68384;55.750;48.746;2023-04-26T02:02:43;13.07;;;8.07;;
78985;SDS011;68384;55.750;48.746;2023-04-26T02:03:47;14.77;;;8.10;;
78985;SDS011;68384;55.750;48.746;2023-04-26T02:04:50;11.93;;;8.55;;
78985;SDS011;68384;55.750;48.746;2023-04-26T02:06:56;12.80;;;7.40;;
78985;SDS011;68384;55.750;48.746;2023-04-26T02:10:07;11.38;;;7.68;;
78985;SDS011;68384;55.750;48.746;2023-04-26T02:11:10;14.00;;;7.70;;
78985;SDS011;68384;55.750;48.746;2023-04-26T02:12:14;14.82;;;7.90;;
78985;SDS011;68384;55.750;48.746;2023-04-26T02:13:16;8.88;;;7.63;;
78985;SDS011;68384;55.750;48.746;2023-04-26T02:14:20;16.92;;;7.63;;
78985;SDS011;68384;55.750;48.746;2023-04-26T02:15:23;12.90;;;7.40;;
78985;SDS011;68384;55.750;48.746;2023-04-26T02:16:26;15.73;;;7.93;;
78985;SDS011;68384;55.750;48.746;2023-04-26T02:17:29;8.77;;;7.20;;
78985;SDS011;68384;55.750;48.746;2023-04-26T02:18:33;9.93;;;6.93;;
78985;SDS011;68384;55.750;48.746;2023-04-26T02:19:36;14.13;;;7.15;;
78985;SDS011;68384;55.750;48.746;2023-04-26T02:20:39;14.88;;;7.85;;
78985;SDS011;68384;55.750;48.746;2023-04-26T02:21:50;13.52;;;7.93;;
78985;SDS011;68384;55.750;48.746;2023-04-26T02:22:56;17.23;;;7.55;;
78985;SDS011;68384;55.750;48.746;2023-04-26T02:23:58;12.75;;;7.68;;
78985;SDS011;68384;55.750;48.746;2023-04-26T02:25:02;14.68;;;7.57;;
78985;SDS011;68384;55.750;48.746;2023-04-26T02:26:07;13.13;;;7.63;;
78985;SDS011;68384;55.750;48.746;2023-04-26T02:27:12;13.55;;;7.57;;
78985;SDS011;68384;55.750;48.746;2023-04-26T02:28:14;13.95;;;8.38;;
78985;SDS011;68384;55.750;48.746;2023-04-26T02:29:18;11.13;;;6.90;;
78985;SDS011;68384;55.750;48.746;2023-04-26T02:30:40;11.27;;;6.97;;
78985;SDS011;68384;55.750;48.746;2023-04-26T02:31:45;12.15;;;6.82;;
78985;SDS011;68384;55.750;48.746;2023-04-26T02:32:49;18.52;;;7.32;;
78985;SDS011;68384;55.750;48.746;2023-04-26T02:33:55;13.80;;;7.03;;
78985;SDS011;68384;55.750;48.746;2023-04-26T02:34:58;10.00;;;6.75;;
78985;SDS011;68384;55.750;48.746;2023-04-26T02:36:02;12.15;;;6.68;;
78985;SDS011;68384;55.750;48.746;2023-04-26T02:38:09;14.20;;;6.88;;
78985;SDS011;68384;55.750;48.746;2023-04-26T02:39:12;14.23;;;6.78;;
78985;SDS011;68384;55.750;48.746;2023-04-26T02:40:15;10.70;;;6.78;;
78985;SDS011;68384;55.750;48.746;2023-04-26T02:41:19;13.82;;;7.13;;
78985;SDS011;68384;55.750;48.746;2023-04-26T02:42:24;12.15;;;7.43;;
78985;SDS011;68384;55.750;48.746;2023-04-26T02:43:26;12.57;;;6.65;;
78985;SDS011;68384;55.750;48.746;2023-04-26T02:44:30;12.95;;;7.13;;
78985;SDS011;68384;55.750;48.746;2023-04-26T02:45:33;8.77;;;6.63;;
78985;SDS011;68384;55.750;48.746;2023-04-26T02:47:38;8.80;;;6.00;;
78985;SDS011;68384;55.750;48.746;2023-04-26T02:48:42;12.40;;;5.70;;
78985;SDS011;68384;55.750;48.746;2023-04-26T02:49:45;7.65;;;5.85;;
78985;SDS011;68384;55.750;48.746;2023-04-26T02:50:48;11.57;;;5.78;;
78985;SDS011;68384;55.750;48.746;2023-04-26T02:51:51;8.43;;;6.38;;
78985;SDS011;68384;55.750;48.746;2023-04-26T02:52:55;14.20;;;7.07;;
78985;SDS011;68384;55.750;48.746;2023-04-26T02:53:57;9.68;;;6.53;;
78985;SDS011;68384;55.750;48.746;2023-04-26T02:55:01;9.23;;;6.82;;
78985;SDS011;68384;55.750;48.746;2023-04-26T02:56:05;14.88;;;6.57;;
78985;SDS011;68384;55.750;48.746;2023-04-26T02:57:10;13.20;;;6.82;;
78985;SDS011;68384;55.750;48.746;2023-04-26T02:58:13;9.93;;;6.22;;
78985;SDS011;68384;55.750;48.746;2023-04-26T03:00:19;11.90;;;6.68;;
78985;SDS011;68384;55.750;48.746;2023-04-26T03:01:23;9.80;;;6.78;;
78985;SDS011;68384;55.750;48.746;2023-04-26T03:02:26;16.40;;;6.80;;
78985;SDS011;68384;55.750;48.746;2023-04-26T03:03:30;10.70;;;6.90;;
78985;SDS011;68384;55.750;48.746;2023-04-26T03:04:33;12.18;;;6.47;;
78985;SDS011;68384;55.750;48.746;2023-04-26T03:05:36;14.07;;;7.20;;
78985;SDS011;68384;55.750;48.746;2023-04-26T03:06:39;12.68;;;7.15;;
78985;SDS011;68384;55.750;48.746;2023-04-26T03:07:43;14.35;;;6.28;;
78985;SDS011;68384;55.750;48.746;2023-04-26T03:08:45;11.77;;;6.57;;
78985;SDS011;68384;55.750;48.746;2023-04-26T03:09:49;13.25;;;6.20;;
78985;SDS011;68384;55.750;48.746;2023-04-26T03:10:51;13.70;;;7.30;;
78985;SDS011;68384;55.750;48.746;2023-04-26T03:14:02;12.18;;;6.18;;
78985;SDS011;68384;55.750;48.746;2023-04-26T03:15:05;10.82;;;6.35;;
78985;SDS011;68384;55.750;48.746;2023-04-26T03:16:10;12.38;;;6.15;;
78985;SDS011;68384;55.750;48.746;2023-04-26T03:17:12;12.13;;;6.45;;
78985;SDS011;68384;55.750;48.746;2023-04-26T03:19:18;11.18;;;5.65;;
78985;SDS011;68384;55.750;48.746;2023-04-26T03:21:24;9.48;;;5.93;;
78985;SDS011;68384;55.750;48.746;2023-04-26T03:22:28;10.80;;;6.13;;
78985;SDS011;68384;55.750;48.746;2023-04-26T03:23:31;8.43;;;5.68;;
78985;SDS011;68384;55.750;48.746;2023-04-26T03:24:35;10.27;;;5.88;;
78985;SDS011;68384;55.750;48.746;2023-04-26T03:25:37;9.57;;;5.80;;
78985;SDS011;68384;55.750;48.746;2023-04-26T03:27:43;12.82;;;5.90;;
78985;SDS011;68384;55.750;48.746;2023-04-26T03:28:48;9.25;;;5.60;;
78985;SDS011;68384;55.750;48.746;2023-04-26T03:29:51;7.40;;;5.15;;
78985;SDS011;68384;55.750;48.746;2023-04-26T03:31:57;7.00;;;5.40;;
78985;SDS011;68384;55.750;48.746;2023-04-26T03:33:01;8.50;;;5.60;;
78985;SDS011;68384;55.750;48.746;2023-04-26T03:34:04;9.45;;;5.47;;
78985;SDS011;68384;55.750;48.746;2023-04-26T03:35:08;13.80;;;6.10;;
78985;SDS011;68384;55.750;48.746;2023-04-26T03:36:11;8.20;;;5.40;;
78985;SDS011;68384;55.750;48.746;2023-04-26T03:37:15;11.55;;;5.45;;
78985;SDS011;68384;55.750;48.746;2023-04-26T03:38:17;8.25;;;5.38;;
78985;SDS011;68384;55.750;48.746;2023-04-26T03:40:23;7.85;;;5.18;;
78985;SDS011;68384;55.750;48.746;2023-04-26T03:41:27;12.23;;;5.60;;
78985;SDS011;68384;55.750;48.746;2023-04-26T03:42:30;8.40;;;5.35;;
78985;SDS011;68384;55.750;48.746;2023-04-26T03:43:33;11.30;;;5.70;;
78985;SDS011;68384;55.750;48.746;2023-04-26T03:44:37;11.30;;;5.22;;
78985;SDS011;68384;55.750;48.746;2023-04-26T03:45:41;10.48;;;5.35;;
78985;SDS011;68384;55.750;48.746;2023-04-26T03:46:44;9.93;;;4.70;;
78985;SDS011;68384;55.750;48.746;2023-04-26T03:47:47;13.52;;;6.18;;
78985;SDS011;68384;55.750;48.746;2023-04-26T03:48:50;11.05;;;6.18;;
78985;SDS011;68384;55.750;48.746;2023-04-26T03:49:54;11.65;;;5.75;;
78985;SDS011;68384;55.750;48.746;2023-04-26T03:50:57;10.52;;;5.20;;
78985;SDS011;68384;55.750;48.746;2023-04-26T03:53:02;10.40;;;5.25;;
78985;SDS011;68384;55.750;48.746;2023-04-26T03:54:06;9.68;;;5.05;;
78985;SDS011;68384;55.750;48.746;2023-04-26T03:55:09;11.98;;;5.28;;
78985;SDS011;68384;55.750;48.746;2023-04-26T03:56:13;10.70;;;5.68;;
78985;SDS011;68384;55.750;48.746;2023-04-26T03:57:16;12.63;;;5.90;;
78985;SDS011;68384;55.750;48.746;2023-04-26T03:58:19;9.10;;;4.97;;
78985;SDS011;68384;55.750;48.746;2023-04-26T03:59:22;12.30;;;5.45;;
78985;SDS011;68384;55.750;48.746;2023-04-26T04:00:27;10.70;;;5.25;;
78985;SDS011;68384;55.750;48.746;2023-04-26T04:01:30;11.93;;;5.68;;
78985;SDS011;68384;55.750;48.746;2023-04-26T04:02:34;9.57;;;5.47;;
78985;SDS011;68384;55.750;48.746;2023-04-26T04:03:37;8.93;;;5.00;;
78985;SDS011;68384;55.750;48.746;2023-04-26T04:04:42;9.93;;;5.05;;
78985;SDS011;68384;55.750;48.746;2023-04-26T04:05:45;8.10;;;4.75;;
78985;SDS011;68384;55.750;48.746;2023-04-26T04:06:49;13.52;;;5.47;;
78985;SDS011;68384;55.750;48.746;2023-04-26T04:07:51;8.75;;;5.00;;
78985;SDS011;68384;55.750;48.746;2023-04-26T04:11:01;9.30;;;4.60;;
78985;SDS011;68384;55.750;48.746;2023-04-26T04:13:07;11.10;;;3.95;;
78985;SDS011;68384;55.750;48.746;2023-04-26T04:14:11;7.80;;;4.38;;
78985;SDS011;68384;55.750;48.746;2023-04-26T04:15:14;9.38;;;4.38;;
78985;SDS011;68384;55.750;48.746;2023-04-26T04:16:19;8.23;;;4.88;;
78985;SDS011;68384;55.750;48.746;2023-04-26T04:17:22;8.32;;;4.55;;
78985;SDS011;68384;55.750;48.746;2023-04-26T04:18:26;10.77;;;4.60;;
78985;SDS011;68384;55.750;48.746;2023-04-26T04:19:28;9.05;;;5.65;;
78985;SDS011;68384;55.750;48.746;2023-04-26T04:20:32;7.97;;;5.30;;
78985;SDS011;68384;55.750;48.746;2023-04-26T04:21:34;10.75;;;4.53;;
78985;SDS011;68384;55.750;48.746;2023-04-26T04:23:40;10.98;;;4.53;;
78985;SDS011;68384;55.750;48.746;2023-04-26T04:24:45;8.65;;;4.30;;
78985;SDS011;68384;55.750;48.746;2023-04-26T04:25:48;7.43;;;4.60;;
78985;SDS011;68384;55.750;48.746;2023-04-26T04:26:52;7.93;;;4.30;;
78985;SDS011;68384;55.750;48.746;2023-04-26T04:27:55;13.68;;;5.25;;
78985;SDS011;68384;55.750;48.746;2023-04-26T04:28:58;8.68;;;5.00;;
78985;SDS011;68384;55.750;48.746;2023-04-26T04:30:10;7.00;;;4.40;;
78985;SDS011;68384;55.750;48.746;2023-04-26T04:31:14;10.93;;;4.85;;
78985;SDS011;68384;55.750;48.746;2023-04-26T04:32:18;7.07;;;4.78;;
78985;SDS011;68384;55.750;48.746;2023-04-26T04:33:22;7.28;;;4.20;;
78985;SDS011;68384;55.750;48.746;2023-04-26T04:34:26;7.47;;;4.20;;
78985;SDS011;68384;55.750;48.746;2023-04-26T04:36:34;8.95;;;3.83;;
78985;SDS011;68384;55.750;48.746;2023-04-26T04:37:39;6.63;;;4.05;;
78985;SDS011;68384;55.750;48.746;2023-04-26T04:38:42;7.90;;;4.30;;
78985;SDS011;68384;55.750;48.746;2023-04-26T04:39:46;11.57;;;4.80;;
78985;SDS011;68384;55.750;48.746;2023-04-26T04:40:48;10.32;;;4.38;;
78985;SDS011;68384;55.750;48.746;2023-04-26T04:41:53;10.52;;;4.28;;
78985;SDS011;68384;55.750;48.746;2023-04-26T04:42:55;9.48;;;4.63;;
78985;SDS011;68384;55.750;48.746;2023-04-26T04:45:01;15.38;;;4.40;;
78985;SDS011;68384;55.750;48.746;2023-04-26T04:46:06;10.27;;;4.15;;
78985;SDS011;68384;55.750;48.746;2023-04-26T04:47:12;12.07;;;4.75;;
78985;SDS011;68384;55.750;48.746;2023-04-26T04:49:21;20.15;;;4.68;;
78985;SDS011;68384;55.750;48.746;2023-04-26T04:50:25;15.07;;;4.10;;
78985;SDS011;68384;55.750;48.746;2023-04-26T04:51:30;12.52;;;4.38;;
78985;SDS011;68384;55.750;48.746;2023-04-26T04:52:32;9.60;;;4.38;;
78985;SDS011;68384;55.750;48.746;2023-04-26T04:53:36;15.48;;;4.60;;
78985;SDS011;68384;55.750;48.746;2023-04-26T04:54:39;10.75;;;4.75;;
78985;SDS011;68384;55.750;48.746;2023-04-26T04:55:42;16.90;;;4.68;;
78985;SDS011;68384;55.750;48.746;2023-04-26T04:56:45;9.38;;;4.15;;
78985;SDS011;68384;55.750;48.746;2023-04-26T04:57:49;15.15;;;4.75;;
78985;SDS011;68384;55.750;48.746;2023-04-26T04:58:52;13.52;;;4.43;;
78985;SDS011;68384;55.750;48.746;2023-04-26T04:59:55;12.85;;;4.55;;
78985;SDS011;68384;55.750;48.746;2023-04-26T05:00:59;19.63;;;8.30;;
78985;SDS011;68384;55.750;48.746;2023-04-26T05:02:03;10.45;;;4.90;;
78985;SDS011;68384;55.750;48.746;2023-04-26T05:03:06;14.77;;;4.57;;
78985;SDS011;68384;55.750;48.746;2023-04-26T05:04:12;11.93;;;4.65;;
78985;SDS011;68384;55.750;48.746;2023-04-26T05:05:15;13.55;;;4.75;;
78985;SDS011;68384;55.750;48.746;2023-04-26T05:06:19;18.17;;;5.30;;
78985;SDS011;68384;55.750;48.746;2023-04-26T05:07:22;13.55;;;4.82;;
78985;SDS011;68384;55.750;48.746;2023-04-26T05:08:29;16.42;;;5.13;;
78985;SDS011;68384;55.750;48.746;2023-04-26T05:09:32;13.07;;;4.70;;
78985;SDS011;68384;55.750;48.746;2023-04-26T05:11:38;16.65;;;4.63;;
78985;SDS011;68384;55.750;48.746;2023-04-26T05:13:44;18.17;;;4.88;;
78985;SDS011;68384;55.750;48.746;2023-04-26T05:14:50;19.20;;;6.15;;
78985;SDS011;68384;55.750;48.746;2023-04-26T05:15:53;25.92;;;5.35;;
78985;SDS011;68384;55.750;48.746;2023-04-26T05:16:56;18.65;;;5.85;;
78985;SDS011;68384;55.750;48.746;2023-04-26T05:17:59;18.95;;;5.75;;
78985;SDS011;68384;55.750;48.746;2023-04-26T05:19:03;14.07;;;4.88;;
78985;SDS011;68384;55.750;48.746;2023-04-26T05:20:10;23.08;;;6.28;;
78985;SDS011;68384;55.750;48.746;2023-04-26T05:21:15;21.92;;;5.47;;
78985;SDS011;68384;55.750;48.746;2023-04-26T05:22:18;17.17;;;5.70;;
78985;SDS011;68384;55.750;48.746;2023-04-26T05:23:23;22.33;;;5.55;;
78985;SDS011;68384;55.750;48.746;2023-04-26T05:24:28;18.55;;;5.60;;
78985;SDS011;68384;55.750;48.746;2023-04-26T05:25:35;24.33;;;5.30;;
78985;SDS011;68384;55.750;48.746;2023-04-26T05:26:38;27.25;;;4.95;;
78985;SDS011;68384;55.750;48.746;2023-04-26T05:27:42;15.25;;;5.00;;
78985;SDS011;68384;55.750;48.746;2023-04-26T05:28:46;19.58;;;5.47;;
78985;SDS011;68384;55.750;48.746;2023-04-26T05:29:49;18.58;;;5.30;;
78985;SDS011;68384;55.750;48.746;2023-04-26T05:30:52;16.05;;;5.57;;
78985;SDS011;68384;55.750;48.746;2023-04-26T05:31:56;20.50;;;5.15;;
78985;SDS011;68384;55.750;48.746;2023-04-26T05:33:00;28.63;;;5.82;;
78985;SDS011;68384;55.750;48.746;2023-04-26T05:34:04;22.45;;;5.38;;
78985;SDS011;68384;55.750;48.746;2023-04-26T05:35:07;18.77;;;4.72;;
78985;SDS011;68384;55.750;48.746;2023-04-26T05:36:12;20.95;;;5.47;;
78985;SDS011;68384;55.750;48.746;2023-04-26T05:37:15;21.60;;;4.85;;
78985;SDS011;68384;55.750;48.746;2023-04-26T05:38:19;23.17;;;6.05;;
78985;SDS011;68384;55.750;48.746;2023-04-26T05:39:22;22.52;;;5.78;;
78985;SDS011;68384;55.750;48.746;2023-04-26T05:40:26;15.80;;;6.03;;
78985;SDS011;68384;55.750;48.746;2023-04-26T05:41:28;17.38;;;6.05;;
78985;SDS011;68384;55.750;48.746;2023-04-26T05:42:32;29.90;;;5.85;;
78985;SDS011;68384;55.750;48.746;2023-04-26T05:43:35;14.65;;;5.50;;
78985;SDS011;68384;55.750;48.746;2023-04-26T05:44:39;15.95;;;5.00;;
78985;SDS011;68384;55.750;48.746;2023-04-26T05:45:48;24.67;;;5.45;;
78985;SDS011;68384;55.750;48.746;2023-04-26T05:46:52;24.90;;;5.65;;
78985;SDS011;68384;55.750;48.746;2023-04-26T05:47:55;33.00;;;5.40;;
78985;SDS011;68384;55.750;48.746;2023-04-26T05:48:59;13.13;;;5.40;;
78985;SDS011;68384;55.750;48.746;2023-04-26T05:50:01;24.50;;;5.68;;
78985;SDS011;68384;55.750;48.746;2023-04-26T05:51:05;28.95;;;5.95;;
78985;SDS011;68384;55.750;48.746;2023-04-26T05:52:09;24.30;;;4.80;;
78985;SDS011;68384;55.750;48.746;2023-04-26T05:53:13;28.85;;;5.32;;
78985;SDS011;68384;55.750;48.746;2023-04-26T05:54:16;23.80;;;5.65;;
78985;SDS011;68384;55.750;48.746;2023-04-26T05:55:19;23.85;;;5.72;;
78985;SDS011;68384;55.750;48.746;2023-04-26T05:56:22;21.65;;;6.20;;
78985;SDS011;68384;55.750;48.746;2023-04-26T05:57:26;25.55;;;6.35;;
78985;SDS011;68384;55.750;48.746;2023-04-26T05:59:34;31.77;;;5.75;;
78985;SDS011;68384;55.750;48.746;2023-04-26T06:00:37;15.48;;;5.68;;
78985;SDS011;68384;55.750;48.746;2023-04-26T06:01:41;26.95;;;5.88;;
78985;SDS011;68384;55.750;48.746;2023-04-26T06:02:44;22.05;;;6.28;;
78985;SDS011;68384;55.750;48.746;2023-04-26T06:03:48;24.00;;;6.07;;
78985;SDS011;68384;55.750;48.746;2023-04-26T06:04:53;20.60;;;6.43;;
78985;SDS011;68384;55.750;48.746;2023-04-26T06:05:57;21.05;;;5.10;;
78985;SDS011;68384;55.750;48.746;2023-04-26T06:07:02;22.02;;;5.88;;
78985;SDS011;68384;55.750;48.746;2023-04-26T06:08:06;28.08;;;6.30;;
78985;SDS011;68384;55.750;48.746;2023-04-26T06:09:10;29.02;;;5.57;;
78985;SDS011;68384;55.750;48.746;2023-04-26T06:10:14;20.15;;;5.35;;
78985;SDS011;68384;55.750;48.746;2023-04-26T06:11:17;25.88;;;7.05;;
78985;SDS011;68384;55.750;48.746;2023-04-26T06:12:22;21.52;;;6.65;;
78985;SDS011;68384;55.750;48.746;2023-04-26T06:13:24;27.13;;;5.80;;
78985;SDS011;68384;55.750;48.746;2023-04-26T06:15:31;25.40;;;6.30;;
78985;SDS011;68384;55.750;48.746;2023-04-26T06:16:34;24.73;;;5.82;;
78985;SDS011;68384;55.750;48.746;2023-04-26T06:18:41;17.88;;;4.80;;
78985;SDS011;68384;55.750;48.746;2023-04-26T06:21:50;19.52;;;5.35;;
78985;SDS011;68384;55.750;48.746;2023-04-26T06:22:56;28.33;;;6.43;;
78985;SDS011;68384;55.750;48.746;2023-04-26T06:24:01;23.08;;;4.88;;
78985;SDS011;68384;55.750;48.746;2023-04-26T06:25:05;24.65;;;5.82;;
78985;SDS011;68384;55.750;48.746;2023-04-26T06:26:09;29.73;;;6.97;;
78985;SDS011;68384;55.750;48.746;2023-04-26T06:27:12;28.33;;;6.70;;
78985;SDS011;68384;55.750;48.746;2023-04-26T06:28:15;21.60;;;5.65;;
78985;SDS011;68384;55.750;48.746;2023-04-26T06:30:22;26.20;;;6.05;;
78985;SDS011;68384;55.750;48.746;2023-04-26T06:31:25;31.83;;;7.18;;
78985;SDS011;68384;55.750;48.746;2023-04-26T06:33:31;23.65;;;6.43;;
78985;SDS011;68384;55.750;48.746;2023-04-26T06:34:35;25.92;;;7.32;;
78985;SDS011;68384;55.750;48.746;2023-04-26T06:35:38;26.23;;;6.88;;
78985;SDS011;68384;55.750;48.746;2023-04-26T06:36:43;28.40;;;6.53;;
78985;SDS011;68384;55.750;48.746;2023-04-26T06:37:46;27.02;;;6.50;;
78985;SDS011;68384;55.750;48.746;2023-04-26T06:39:55;24.02;;;6.93;;
78985;SDS011;68384;55.750;48.746;2023-04-26T06:40:57;23.90;;;6.85;;
78985;SDS011;68384;55.750;48.746;2023-04-26T06:42:01;30.40;;;7.43;;
78985;SDS011;68384;55.750;48.746;2023-04-26T06:43:04;30.67;;;8.00;;
78985;SDS011;68384;55.750;48.746;2023-04-26T06:46:13;21.83;;;6.03;;
78985;SDS011;68384;55.750;48.746;2023-04-26T06:47:16;18.65;;;6.45;;
78985;SDS011;68384;55.750;48.746;2023-04-26T06:48:20;21.88;;;6.30;;
78985;SDS011;68384;55.750;48.746;2023-04-26T06:50:26;23.50;;;6.53;;
78985;SDS011;68384;55.750;48.746;2023-04-26T06:51:29;26.58;;;6.05;;
78985;SDS011;68384;55.750;48.746;2023-04-26T06:52:32;20.02;;;6.13;;
78985;SDS011;68384;55.750;48.746;2023-04-26T06:53:36;23.58;;;6.97;;
78985;SDS011;68384;55.750;48.746;2023-04-26T06:54:39;25.05;;;8.10;;
78985;SDS011;68384;55.750;48.746;2023-04-26T06:55:58;26.25;;;7.30;;
78985;SDS011;68384;55.750;48.746;2023-04-26T06:57:02;22.33;;;6.53;;
78985;SDS011;68384;55.750;48.746;2023-04-26T06:58:05;14.15;;;6.15;;
78985;SDS011;68384;55.750;48.746;2023-04-26T06:59:09;18.23;;;6.60;;
78985;SDS011;68384;55.750;48.746;2023-04-26T07:00:12;32.83;;;6.97;;
78985;SDS011;68384;55.750;48.746;2023-04-26T07:01:16;22.17;;;6.70;;
78985;SDS011;68384;55.750;48.746;2023-04-26T07:02:19;26.88;;;6.45;;